createdAt,value
2022-10-09T00:00:08.368Z,0
2022-10-09T00:01:08.858Z,0
2022-10-09T00:02:09.208Z,0
2022-10-09T00:03:09.481Z,0
2022-10-09T00:04:09.393Z,0
2022-10-09T00:05:09.890Z,0
2022-10-09T00:06:10.183Z,0
2022-10-09T00:07:10.371Z,0
2022-10-09T00:08:10.560Z,0
2022-10-09T00:09:11.166Z,0
2022-10-09T00:10:11.368Z,0
2022-10-09T00:11:11.561Z,0
2022-10-09T00:12:12.269Z,0
2022-10-09T00:13:12.190Z,0
2022-10-09T00:14:12.877Z,0
2022-10-09T00:15:13.821Z,0
2022-10-09T00:16:14.516Z,0
2022-10-09T00:17:15.229Z,0
2022-10-09T00:18:15.425Z,0
2022-10-09T00:19:15.846Z,0
2022-10-09T00:20:16.058Z,0
2022-10-09T00:21:16.712Z,0
2022-10-09T00:22:16.624Z,0
2022-10-09T00:23:17.268Z,0
2022-10-09T00:24:18.193Z,0
2022-10-09T00:25:18.412Z,0
2022-10-09T00:26:18.743Z,0
2022-10-09T00:27:19.355Z,0
2022-10-09T00:28:20.486Z,0
2022-10-09T00:29:20.891Z,0
2022-10-09T00:30:20.800Z,0
2022-10-09T00:31:21.932Z,0
2022-10-09T00:32:21.639Z,0
2022-10-09T00:33:22.131Z,0
2022-10-09T00:34:22.325Z,0
2022-10-09T00:35:22.216Z,0
2022-10-09T00:36:23.151Z,0
2022-10-09T00:37:24.351Z,0
2022-10-09T00:38:25.564Z,0
2022-10-09T00:39:26.122Z,0
2022-10-09T00:40:27.064Z,0
2022-10-09T00:41:27.659Z,0
2022-10-09T00:42:28.557Z,0
2022-10-09T00:43:29.450Z,0
2022-10-09T00:44:29.937Z,0
2022-10-09T00:45:30.163Z,0
2022-10-09T00:46:30.003Z,0
2022-10-09T00:47:30.733Z,0
2022-10-09T00:48:31.641Z,0
2022-10-09T00:49:32.658Z,0
2022-10-09T00:50:32.972Z,0
2022-10-09T00:51:34.127Z,0
2022-10-09T00:52:34.042Z,0
2022-10-09T00:53:34.981Z,0
2022-10-09T00:54:35.202Z,0
2022-10-09T00:55:35.535Z,0
2022-10-09T00:56:36.724Z,0
2022-10-09T00:57:37.621Z,0
2022-10-09T00:58:38.826Z,0
2022-10-09T00:59:39.111Z,0
2022-10-09T01:00:40.017Z,0
2022-10-09T01:01:40.355Z,0
2022-10-09T01:02:40.841Z,0
2022-10-09T01:03:41.175Z,0
2022-10-09T01:04:42.108Z,0
2022-10-09T01:05:41.727Z,0
2022-10-09T01:06:43.242Z,0
2022-10-09T01:07:43.155Z,0
2022-10-09T01:08:43.798Z,0
2022-10-09T01:09:45.411Z,0
2022-10-09T01:10:46.336Z,0
2022-10-09T01:11:46.529Z,0
2022-10-09T01:12:47.070Z,0
2022-10-09T01:13:47.386Z,0
2022-10-09T01:14:47.581Z,0
2022-10-09T01:15:47.950Z,0
2022-10-09T01:16:47.685Z,0
2022-10-09T01:17:48.616Z,0
2022-10-09T01:18:48.529Z,0
2022-10-09T01:19:49.497Z,0
2022-10-09T01:20:50.093Z,0
2022-10-09T01:21:51.036Z,0
2022-10-09T01:22:52.391Z,0
2022-10-09T01:23:51.606Z,0
2022-10-09T01:24:52.517Z,0
2022-10-09T01:25:53.432Z,0
2022-10-09T01:26:54.370Z,0
2022-10-09T01:27:55.003Z,0
2022-10-09T01:28:56.585Z,0
2022-10-09T01:29:56.892Z,0
2022-10-09T01:30:57.038Z,0
2022-10-09T01:31:57.337Z,0
2022-10-09T01:32:58.114Z,0
2022-10-09T01:33:58.737Z,0
2022-10-09T01:34:59.952Z,0
2022-10-09T01:35:59.888Z,0
2022-10-09T01:36:59.719Z,0
2022-10-09T01:38:00.918Z,0
2022-10-09T01:39:01.852Z,0
2022-10-09T01:40:02.833Z,0
2022-10-09T01:41:03.029Z,0
2022-10-09T01:42:04.221Z,0
2022-10-09T01:43:04.127Z,0
2022-10-09T01:44:05.055Z,0
2022-10-09T01:45:04.964Z,0
2022-10-09T01:46:06.303Z,0
2022-10-09T01:47:06.560Z,0
2022-10-09T01:48:06.893Z,0
2022-10-09T01:49:08.507Z,0
2022-10-09T01:50:09.255Z,0
2022-10-09T01:51:09.953Z,0
2022-10-09T01:52:10.632Z,0
2022-10-09T01:53:11.966Z,0
2022-10-09T01:54:13.176Z,0
2022-10-09T01:55:13.399Z,0
2022-10-09T01:56:13.738Z,0
2022-10-09T01:57:14.652Z,0
2022-10-09T01:58:15.143Z,0
2022-10-09T01:59:21.784Z,0
2022-10-09T02:00:16.508Z,0
2022-10-09T02:01:17.658Z,0
2022-10-09T02:02:19.389Z,0
2022-10-09T02:03:18.741Z,0
2022-10-09T02:04:19.637Z,0
2022-10-09T02:05:19.975Z,0
2022-10-09T02:06:21.189Z,0
2022-10-09T02:07:21.409Z,0
2022-10-09T02:08:21.460Z,0
2022-10-09T02:09:22.368Z,0
2022-10-09T02:10:22.656Z,0
2022-10-09T02:11:21.981Z,0
2022-10-09T02:12:22.289Z,0
2022-10-09T02:13:23.182Z,0
2022-10-09T02:14:23.691Z,0
2022-10-09T02:15:23.325Z,0
2022-10-09T02:16:24.658Z,0
2022-10-09T02:17:25.156Z,0
2022-10-09T02:18:24.768Z,0
2022-10-09T02:19:25.679Z,0
2022-10-09T02:20:26.667Z,0
2022-10-09T02:21:26.578Z,0
2022-10-09T02:22:26.797Z,0
2022-10-09T02:23:26.710Z,0
2022-10-09T02:24:28.199Z,0
2022-10-09T02:25:28.123Z,0
2022-10-09T02:26:29.333Z,0
2022-10-09T02:27:29.243Z,0
2022-10-09T02:28:30.759Z,0
2022-10-09T02:29:31.233Z,0
2022-10-09T02:30:32.542Z,0
2022-10-09T02:31:32.732Z,0
2022-10-09T02:32:32.720Z,0
2022-10-09T02:33:33.355Z,0
2022-10-09T02:34:34.260Z,0
2022-10-09T02:35:34.158Z,0
2022-10-09T02:36:35.081Z,0
2022-10-09T02:37:35.513Z,0
2022-10-09T02:38:36.731Z,0
2022-10-09T02:39:37.638Z,0
2022-10-09T02:40:38.106Z,0
2022-10-09T02:41:38.719Z,0
2022-10-09T02:42:39.633Z,0
2022-10-09T02:43:40.827Z,0
2022-10-09T02:44:40.793Z,0
2022-10-09T02:45:42.002Z,0
2022-10-09T02:46:42.092Z,0
2022-10-09T02:47:42.443Z,0
2022-10-09T02:48:43.378Z,0
2022-10-09T02:49:43.569Z,0
2022-10-09T02:50:43.910Z,0
2022-10-09T02:51:44.101Z,0
2022-10-09T02:52:45.051Z,0
2022-10-09T02:53:45.685Z,0
2022-10-09T02:54:45.875Z,0
2022-10-09T02:55:46.497Z,0
2022-10-09T02:56:50.298Z,0
2022-10-09T02:57:47.616Z,0
2022-10-09T02:58:48.330Z,0
2022-10-09T02:59:49.529Z,0
2022-10-09T03:00:49.497Z,0
2022-10-09T03:01:50.020Z,0
2022-10-09T03:02:50.779Z,0
2022-10-09T03:03:50.605Z,0
2022-10-09T03:04:51.542Z,0
2022-10-09T03:05:52.453Z,0
2022-10-09T03:06:53.067Z,0
2022-10-09T03:07:53.703Z,0
2022-10-09T03:08:55.193Z,0
2022-10-09T03:09:55.117Z,0
2022-10-09T03:10:55.919Z,0
2022-10-09T03:11:56.831Z,0
2022-10-09T03:12:57.875Z,0
2022-10-09T03:13:58.360Z,0
2022-10-09T03:14:58.555Z,0
2022-10-09T03:15:59.142Z,0
2022-10-09T03:16:59.866Z,0
2022-10-09T03:18:00.801Z,0
2022-10-09T03:19:01.708Z,0
2022-10-09T03:20:01.607Z,0
2022-10-09T03:21:02.599Z,0
2022-10-09T03:22:02.516Z,0
2022-10-09T03:23:03.250Z,0
2022-10-09T03:24:03.747Z,0
2022-10-09T03:25:03.378Z,0
2022-10-09T03:26:04.037Z,0
2022-10-09T03:27:04.969Z,0
2022-10-09T03:28:05.257Z,0
2022-10-09T03:29:05.480Z,0
2022-10-09T03:30:06.130Z,0
2022-10-09T03:31:07.427Z,0
2022-10-09T03:32:08.612Z,0
2022-10-09T03:33:08.930Z,0
2022-10-09T03:34:09.117Z,0
2022-10-09T03:35:09.467Z,0
2022-10-09T03:36:10.656Z,0
2022-10-09T03:37:11.266Z,0
2022-10-09T03:38:11.940Z,0
2022-10-09T03:39:12.152Z,0
2022-10-09T03:40:13.342Z,0
2022-10-09T03:41:13.076Z,0
2022-10-09T03:42:13.730Z,0
2022-10-09T03:43:14.939Z,0
2022-10-09T03:44:15.428Z,0
2022-10-09T03:45:15.637Z,0
2022-10-09T03:46:16.015Z,0
2022-10-09T03:47:15.725Z,0
2022-10-09T03:48:16.618Z,0
2022-10-09T03:49:16.649Z,0
2022-10-09T03:50:16.967Z,0
2022-10-09T03:51:18.038Z,0
2022-10-09T03:52:18.379Z,0
2022-10-09T03:53:19.671Z,0
2022-10-09T03:54:19.859Z,0
2022-10-09T03:55:19.752Z,0
2022-10-09T03:56:20.399Z,0
2022-10-09T03:57:21.623Z,0
2022-10-09T03:58:21.260Z,0
2022-10-09T03:59:22.477Z,0
2022-10-09T04:00:23.124Z,0
2022-10-09T04:01:23.894Z,0
2022-10-09T04:02:24.278Z,0
2022-10-09T04:03:24.607Z,0
2022-10-09T04:04:25.225Z,0
2022-10-09T04:05:26.113Z,0
2022-10-09T04:06:26.756Z,0
2022-10-09T04:07:26.832Z,0
2022-10-09T04:08:27.066Z,0
2022-10-09T04:09:27.448Z,0
2022-10-09T04:10:28.380Z,0
2022-10-09T04:11:29.389Z,0
2022-10-09T04:12:30.313Z,0
2022-10-09T04:13:29.934Z,0
2022-10-09T04:14:30.563Z,0
2022-10-09T04:15:32.422Z,0
2022-10-09T04:16:32.284Z,0
2022-10-09T04:17:32.591Z,0
2022-10-09T04:18:33.531Z,0
2022-10-09T04:19:33.844Z,0
2022-10-09T04:20:35.040Z,0
2022-10-09T04:21:35.028Z,0
2022-10-09T04:22:35.657Z,0
2022-10-09T04:23:36.271Z,0
2022-10-09T04:24:37.174Z,0
2022-10-09T04:25:38.093Z,0
2022-10-09T04:26:39.308Z,0
2022-10-09T04:27:38.932Z,0
2022-10-09T04:28:40.898Z,0
2022-10-09T04:29:40.057Z,0
2022-10-09T04:30:40.975Z,0
2022-10-09T04:31:41.231Z,0
2022-10-09T04:32:42.287Z,0
2022-10-09T04:33:41.985Z,0
2022-10-09T04:34:42.902Z,0
2022-10-09T04:35:43.834Z,0
2022-10-09T04:36:44.753Z,0
2022-10-09T04:37:44.662Z,0
2022-10-09T04:38:45.003Z,0
2022-10-09T04:39:46.195Z,0
2022-10-09T04:40:46.832Z,0
2022-10-09T04:41:49.403Z,0
2022-10-09T04:42:47.586Z,0
2022-10-09T04:43:47.967Z,0
2022-10-09T04:44:48.457Z,0
2022-10-09T04:45:49.321Z,0
2022-10-09T04:46:48.802Z,0
2022-10-09T04:47:50.027Z,0
2022-10-09T04:48:50.236Z,0
2022-10-09T04:49:50.846Z,0
2022-10-09T04:50:52.064Z,0
2022-10-09T04:51:52.063Z,0
2022-10-09T04:52:53.837Z,0
2022-10-09T04:53:56.164Z,0
2022-10-09T04:54:54.485Z,0
2022-10-09T04:55:55.450Z,0
2022-10-09T04:56:56.750Z,0
2022-10-09T04:57:56.936Z,0
2022-10-09T04:58:57.425Z,0
2022-10-09T04:59:57.056Z,0
2022-10-09T05:00:58.533Z,0
2022-10-09T05:01:59.254Z,0
2022-10-09T05:02:59.613Z,0
2022-10-09T05:03:59.943Z,0
2022-10-09T05:05:01.154Z,0
2022-10-09T05:06:00.766Z,0
2022-10-09T05:07:01.082Z,0
2022-10-09T05:08:02.274Z,0
2022-10-09T05:09:02.635Z,4
2022-10-09T05:10:03.840Z,0
2022-10-09T05:11:03.735Z,0
2022-10-09T05:12:05.401Z,0
2022-10-09T05:13:05.014Z,4
2022-10-09T05:14:05.057Z,0
2022-10-09T05:15:06.676Z,4
2022-10-09T05:16:07.759Z,4
2022-10-09T05:17:29.478Z,4
2022-10-09T05:18:08.556Z,8
2022-10-09T05:19:08.889Z,8
2022-10-09T05:20:09.797Z,8
2022-10-09T05:21:11.019Z,8
2022-10-09T05:22:11.426Z,8
2022-10-09T05:23:12.339Z,12
2022-10-09T05:24:16.141Z,8
2022-10-09T05:25:13.333Z,12
2022-10-09T05:26:14.220Z,12
2022-10-09T05:27:14.450Z,16
2022-10-09T05:28:14.833Z,16
2022-10-09T05:29:14.849Z,20
2022-10-09T05:30:14.464Z,20
2022-10-09T05:31:16.253Z,20
2022-10-09T05:32:16.229Z,20
2022-10-09T05:33:16.428Z,24
2022-10-09T05:34:17.358Z,24
2022-10-09T05:35:18.280Z,28
2022-10-09T05:36:18.179Z,36
2022-10-09T05:37:19.090Z,36
2022-10-09T05:38:19.703Z,40
2022-10-09T05:39:20.349Z,44
2022-10-09T05:40:22.753Z,48
2022-10-09T05:41:21.211Z,48
2022-10-09T05:42:22.232Z,52
2022-10-09T05:43:22.121Z,52
2022-10-09T05:44:23.022Z,56
2022-10-09T05:45:23.062Z,56
2022-10-09T05:46:24.484Z,64
2022-10-09T05:47:24.392Z,64
2022-10-09T05:48:26.027Z,68
2022-10-09T05:49:26.220Z,68
2022-10-09T05:50:26.130Z,72
2022-10-09T05:51:26.471Z,76
2022-10-09T05:52:27.753Z,76
2022-10-09T05:53:27.658Z,76
2022-10-09T05:54:28.076Z,84
2022-10-09T05:55:29.278Z,84
2022-10-09T05:56:29.757Z,88
2022-10-09T05:57:29.953Z,88
2022-10-09T05:58:29.581Z,92
2022-10-09T05:59:30.792Z,96
2022-10-09T06:00:30.693Z,96
2022-10-09T06:01:32.048Z,100
2022-10-09T06:02:32.342Z,104
2022-10-09T06:03:32.904Z,108
2022-10-09T06:04:33.006Z,112
2022-10-09T06:05:32.636Z,112
2022-10-09T06:06:33.851Z,120
2022-10-09T06:07:33.481Z,124
2022-10-09T06:08:34.395Z,124
2022-10-09T06:09:34.806Z,128
2022-10-09T06:10:37.983Z,128
2022-10-09T06:11:34.898Z,128
2022-10-09T06:12:35.939Z,132
2022-10-09T06:13:36.557Z,132
2022-10-09T06:14:37.469Z,136
2022-10-09T06:15:38.089Z,136
2022-10-09T06:16:39.493Z,140
2022-10-09T06:17:38.876Z,144
2022-10-09T06:18:40.091Z,152
2022-10-09T06:19:41.061Z,160
2022-10-09T06:20:41.976Z,168
2022-10-09T06:21:42.894Z,172
2022-10-09T06:22:43.889Z,180
2022-10-09T06:23:44.006Z,188
2022-10-09T06:24:45.221Z,192
2022-10-09T06:25:45.428Z,196
2022-10-09T06:26:46.644Z,204
2022-10-09T06:27:47.144Z,208
2022-10-09T06:28:47.372Z,212
2022-10-09T06:29:46.738Z,228
2022-10-09T06:30:50.319Z,240
2022-10-09T06:31:47.761Z,244
2022-10-09T06:32:48.393Z,252
2022-10-09T06:33:48.412Z,260
2022-10-09T06:34:49.299Z,264
2022-10-09T06:35:49.939Z,268
2022-10-09T06:36:49.756Z,280
2022-10-09T06:37:50.964Z,284
2022-10-09T06:38:50.874Z,288
2022-10-09T06:39:52.153Z,296
2022-10-09T06:40:52.345Z,300
2022-10-09T06:41:53.266Z,304
2022-10-09T06:42:54.041Z,312
2022-10-09T06:43:54.238Z,316
2022-10-09T06:44:55.452Z,320
2022-10-09T06:45:56.112Z,328
2022-10-09T06:46:55.855Z,336
2022-10-09T06:47:57.069Z,344
2022-10-09T06:48:56.994Z,348
2022-10-09T06:49:57.613Z,352
2022-10-09T06:50:58.231Z,360
2022-10-09T06:51:58.848Z,364
2022-10-09T06:53:00.156Z,368
2022-10-09T06:53:59.781Z,376
2022-10-09T06:55:00.720Z,384
2022-10-09T06:56:01.223Z,396
2022-10-09T06:57:01.138Z,404
2022-10-09T06:58:01.362Z,412
2022-10-09T06:59:01.700Z,424
2022-10-09T07:00:02.610Z,440
2022-10-09T07:01:03.966Z,448
2022-10-09T07:02:04.816Z,456
2022-10-09T07:03:05.721Z,460
2022-10-09T07:04:05.785Z,456
2022-10-09T07:05:05.697Z,448
2022-10-09T07:06:06.316Z,448
2022-10-09T07:07:06.663Z,464
2022-10-09T07:08:07.578Z,484
2022-10-09T07:09:08.779Z,488
2022-10-09T07:10:10.029Z,512
2022-10-09T07:11:10.229Z,524
2022-10-09T07:12:10.844Z,532
2022-10-09T07:13:11.754Z,540
2022-10-09T07:14:12.694Z,548
2022-10-09T07:15:12.736Z,556
2022-10-09T07:16:16.341Z,560
2022-10-09T07:17:14.380Z,564
2022-10-09T07:18:14.291Z,568
2022-10-09T07:19:15.525Z,568
2022-10-09T07:20:15.737Z,568
2022-10-09T07:21:15.352Z,568
2022-10-09T07:22:16.245Z,568
2022-10-09T07:23:17.115Z,572
2022-10-09T07:24:17.754Z,568
2022-10-09T07:25:18.422Z,568
2022-10-09T07:26:18.654Z,572
2022-10-09T07:27:18.873Z,568
2022-10-09T07:28:20.043Z,564
2022-10-09T07:29:20.322Z,560
2022-10-09T07:30:20.638Z,564
2022-10-09T07:31:21.877Z,560
2022-10-09T07:32:21.712Z,560
2022-10-09T07:33:22.461Z,556
2022-10-09T07:34:23.066Z,556
2022-10-09T07:35:23.982Z,552
2022-10-09T07:36:23.911Z,552
2022-10-09T07:37:24.817Z,544
2022-10-09T07:38:25.729Z,548
2022-10-09T07:39:26.220Z,544
2022-10-09T07:40:25.948Z,548
2022-10-09T07:41:25.932Z,552
2022-10-09T07:42:27.152Z,564
2022-10-09T07:43:27.582Z,568
2022-10-09T07:44:27.200Z,580
2022-10-09T07:45:28.392Z,576
2022-10-09T07:46:32.442Z,576
2022-10-09T07:47:29.036Z,568
2022-10-09T07:48:30.330Z,560
2022-10-09T07:49:30.530Z,556
2022-10-09T07:50:30.633Z,568
2022-10-09T07:51:31.879Z,580
2022-10-09T07:52:32.500Z,592
2022-10-09T07:53:41.396Z,608
2022-10-09T07:54:34.339Z,620
2022-10-09T07:55:35.000Z,624
2022-10-09T07:56:36.217Z,636
2022-10-09T07:57:37.130Z,640
2022-10-09T07:58:37.449Z,648
2022-10-09T07:59:37.639Z,648
2022-10-09T08:00:37.553Z,644
2022-10-09T08:01:38.627Z,644
2022-10-09T08:02:39.195Z,636
2022-10-09T08:03:39.589Z,628
2022-10-09T08:04:40.506Z,620
2022-10-09T08:05:40.993Z,608
2022-10-09T08:06:41.351Z,600
2022-10-09T08:07:46.039Z,596
2022-10-09T08:08:43.233Z,588
2022-10-09T08:09:43.868Z,600
2022-10-09T08:10:44.088Z,644
2022-10-09T08:11:45.110Z,668
2022-10-09T08:12:44.736Z,684
2022-10-09T08:13:45.760Z,692
2022-10-09T08:14:45.975Z,684
2022-10-09T08:15:46.922Z,708
2022-10-09T08:16:47.199Z,724
2022-10-09T08:17:47.556Z,732
2022-10-09T08:18:48.180Z,744
2022-10-09T08:19:49.381Z,756
2022-10-09T08:20:49.573Z,768
2022-10-09T08:21:50.486Z,776
2022-10-09T08:22:51.639Z,788
2022-10-09T08:23:51.914Z,808
2022-10-09T08:24:51.819Z,816
2022-10-09T08:25:52.758Z,824
2022-10-09T08:26:52.950Z,840
2022-10-09T08:27:54.141Z,848
2022-10-09T08:28:55.436Z,856
2022-10-09T08:29:55.631Z,856
2022-10-09T08:30:56.451Z,860
2022-10-09T08:31:55.935Z,860
2022-10-09T08:32:57.792Z,848
2022-10-09T08:33:57.379Z,820
2022-10-09T08:34:57.290Z,788
2022-10-09T08:35:58.211Z,748
2022-10-09T08:36:58.403Z,716
2022-10-09T08:37:58.587Z,688
2022-10-09T08:38:59.685Z,668
2022-10-09T08:39:59.336Z,632
2022-10-09T08:41:03.638Z,584
2022-10-09T08:42:00.832Z,556
2022-10-09T08:43:02.276Z,544
2022-10-09T08:44:02.565Z,564
2022-10-09T08:45:03.670Z,576
2022-10-09T08:46:04.338Z,608
2022-10-09T08:47:04.560Z,656
2022-10-09T08:48:05.197Z,676
2022-10-09T08:49:05.795Z,668
2022-10-09T08:50:07.021Z,652
2022-10-09T08:51:06.937Z,644
2022-10-09T08:52:08.157Z,672
2022-10-09T08:53:08.422Z,728
2022-10-09T08:54:08.828Z,752
2022-10-09T08:55:09.467Z,724
2022-10-09T08:56:10.409Z,676
2022-10-09T08:57:11.028Z,644
2022-10-09T08:58:11.647Z,644
2022-10-09T08:59:12.854Z,648
2022-10-09T09:00:14.044Z,672
2022-10-09T09:01:14.288Z,704
2022-10-09T09:02:15.290Z,744
2022-10-09T09:03:15.561Z,780
2022-10-09T09:04:16.291Z,820
2022-10-09T09:05:16.496Z,860
2022-10-09T09:06:16.686Z,900
2022-10-09T09:07:16.879Z,924
2022-10-09T09:08:17.079Z,948
2022-10-09T09:09:17.977Z,968
2022-10-09T09:10:19.020Z,992
2022-10-09T09:11:23.299Z,1000
2022-10-09T09:12:19.517Z,936
2022-10-09T09:13:20.494Z,876
2022-10-09T09:14:21.037Z,868
2022-10-09T09:15:21.392Z,888
2022-10-09T09:16:22.152Z,860
2022-10-09T09:17:21.852Z,792
2022-10-09T09:18:22.776Z,752
2022-10-09T09:19:23.974Z,740
2022-10-09T09:20:24.482Z,736
2022-10-09T09:21:24.402Z,752
2022-10-09T09:22:25.353Z,776
2022-10-09T09:23:25.576Z,776
2022-10-09T09:24:26.295Z,780
2022-10-09T09:25:27.210Z,796
2022-10-09T09:26:28.130Z,824
2022-10-09T09:27:28.342Z,860
2022-10-09T09:28:28.517Z,880
2022-10-09T09:29:28.564Z,864
2022-10-09T09:30:29.774Z,844
2022-10-09T09:31:30.815Z,836
2022-10-09T09:32:31.157Z,824
2022-10-09T09:33:35.140Z,816
2022-10-09T09:34:31.451Z,816
2022-10-09T09:35:32.367Z,792
2022-10-09T09:36:32.859Z,788
2022-10-09T09:37:32.778Z,800
2022-10-09T09:38:32.995Z,816
2022-10-09T09:40:52.227Z,760
2022-10-09T09:41:09.141Z,748
2022-10-09T09:42:09.667Z,720
2022-10-09T09:43:14.931Z,704
2022-10-09T09:44:10.152Z,708
2022-10-09T09:45:11.173Z,704
2022-10-09T09:46:12.197Z,688
2022-10-09T09:47:12.286Z,664
2022-10-09T09:48:12.502Z,640
2022-10-09T09:49:18.194Z,632
2022-10-09T09:51:04.917Z,652
2022-10-09T09:51:41.365Z,668
2022-10-09T09:52:40.711Z,688
2022-10-09T09:53:41.629Z,704
2022-10-09T09:54:42.249Z,720
2022-10-09T09:55:43.579Z,736
2022-10-09T09:57:27.642Z,752
2022-10-09T09:57:44.628Z,752
2022-10-09T09:58:45.865Z,756
2022-10-09T09:59:46.802Z,764
2022-10-09T10:00:46.770Z,756
2022-10-09T10:01:48.333Z,764
2022-10-09T10:02:48.773Z,764
2022-10-09T10:03:48.024Z,764
2022-10-09T10:04:54.663Z,752
2022-10-09T10:05:50.063Z,736
2022-10-09T10:06:49.978Z,724
2022-10-09T10:07:50.317Z,720
2022-10-09T10:08:52.281Z,700
2022-10-09T10:09:51.907Z,696
2022-10-09T10:10:52.225Z,696
2022-10-09T10:11:53.145Z,696
2022-10-09T10:12:54.771Z,704
2022-10-09T10:13:54.964Z,712
2022-10-09T10:14:55.883Z,740
2022-10-09T10:15:57.135Z,768
2022-10-09T10:16:57.482Z,776
2022-10-09T10:17:58.101Z,764
2022-10-09T10:18:58.217Z,732
2022-10-09T10:19:59.506Z,696
2022-10-09T10:20:59.401Z,688
2022-10-09T10:22:00.315Z,700
2022-10-09T10:23:00.878Z,716
2022-10-09T10:25:00.983Z,688
2022-10-09T10:26:01.977Z,704
2022-10-09T10:27:02.599Z,748
2022-10-09T10:28:03.673Z,760
2022-10-09T10:29:03.683Z,780
2022-10-09T10:30:04.601Z,804
2022-10-09T10:31:04.968Z,784
2022-10-09T10:32:04.640Z,752
2022-10-09T10:33:05.278Z,728
2022-10-09T10:34:06.496Z,704
2022-10-09T10:35:07.432Z,684
2022-10-09T10:36:08.440Z,668
2022-10-09T10:37:14.100Z,660
2022-10-09T10:38:09.716Z,664
2022-10-09T10:39:10.631Z,664
2022-10-09T10:40:10.553Z,632
2022-10-09T10:41:10.890Z,604
2022-10-09T10:42:11.272Z,604
2022-10-09T10:43:12.234Z,624
2022-10-09T10:44:12.437Z,636
2022-10-09T10:45:12.629Z,640
2022-10-09T10:46:13.145Z,664
2022-10-09T10:47:13.450Z,696
2022-10-09T10:48:13.646Z,700
2022-10-09T10:49:14.294Z,688
2022-10-09T10:50:15.526Z,696
2022-10-09T10:51:15.421Z,724
2022-10-09T10:52:16.324Z,788
2022-10-09T10:53:16.647Z,864
2022-10-09T10:54:16.830Z,924
2022-10-09T10:55:17.145Z,988
2022-10-09T10:56:18.235Z,1048
2022-10-09T10:57:19.447Z,1104
2022-10-09T10:59:20.478Z,1144
2022-10-09T11:00:20.814Z,1152
2022-10-09T11:01:22.231Z,1224
2022-10-09T11:02:22.377Z,1288
2022-10-09T11:03:23.644Z,1264
2022-10-09T11:04:24.773Z,1120
2022-10-09T11:05:24.695Z,904
2022-10-09T11:06:25.433Z,800
2022-10-09T11:07:26.349Z,804
2022-10-09T11:08:27.247Z,864
2022-10-09T11:09:27.885Z,924
2022-10-09T11:10:28.782Z,960
2022-10-09T11:11:29.671Z,960
2022-10-09T11:13:03.670Z,936
2022-10-09T11:13:30.652Z,944
2022-10-09T11:14:31.705Z,996
2022-10-09T11:15:31.629Z,1148
2022-10-09T11:16:32.334Z,1348
2022-10-09T11:17:32.344Z,1408
2022-10-09T11:18:32.968Z,1296
2022-10-09T11:19:33.335Z,1124
2022-10-09T11:20:34.869Z,1004
2022-10-09T11:21:34.793Z,940
2022-10-09T11:22:36.272Z,916
2022-10-09T11:23:36.190Z,916
2022-10-09T11:24:36.810Z,932
2022-10-09T11:25:37.445Z,1000
2022-10-09T11:26:37.581Z,1080
2022-10-09T11:27:38.180Z,1080
2022-10-09T11:28:39.440Z,1028
2022-10-09T11:29:39.436Z,1036
2022-10-09T11:30:40.931Z,1152
2022-10-09T11:31:40.886Z,1252
2022-10-09T11:32:42.307Z,1244
2022-10-09T11:33:42.586Z,1088
2022-10-09T11:34:42.508Z,864
2022-10-09T11:35:43.714Z,720
2022-10-09T11:36:43.756Z,696
2022-10-09T11:37:44.685Z,792
2022-10-09T11:38:45.945Z,912
2022-10-09T11:39:46.035Z,968
2022-10-09T11:40:46.252Z,960
2022-10-09T11:41:46.447Z,900
2022-10-09T11:42:46.345Z,852
2022-10-09T11:43:47.006Z,800
2022-10-09T11:44:48.068Z,756
2022-10-09T11:45:49.525Z,756
2022-10-09T11:46:50.693Z,776
2022-10-09T11:47:50.886Z,776
2022-10-09T11:48:51.103Z,744
2022-10-09T11:49:52.322Z,708
2022-10-09T11:50:52.683Z,684
2022-10-09T11:51:53.320Z,688
2022-10-09T11:52:54.521Z,680
2022-10-09T11:53:55.442Z,664
2022-10-09T11:54:55.940Z,664
2022-10-09T11:55:56.155Z,664
2022-10-09T11:56:56.500Z,652
2022-10-09T11:57:58.350Z,632
2022-10-09T11:58:57.992Z,608
2022-10-09T11:59:57.883Z,584
2022-10-09T12:00:58.373Z,552
2022-10-09T12:01:58.939Z,552
2022-10-09T12:02:59.046Z,564
2022-10-09T12:04:06.293Z,580
2022-10-09T12:05:06.019Z,604
2022-10-09T12:06:01.227Z,628
2022-10-09T12:07:02.241Z,668
2022-10-09T12:08:02.576Z,696
2022-10-09T12:09:03.197Z,708
2022-10-09T12:10:04.126Z,708
2022-10-09T12:11:04.463Z,704
2022-10-09T12:12:05.085Z,700
2022-10-09T12:13:06.004Z,688
2022-10-09T12:14:06.718Z,676
2022-10-09T12:15:07.913Z,676
2022-10-09T12:16:07.860Z,716
2022-10-09T12:17:09.613Z,768
2022-10-09T12:18:09.531Z,800
2022-10-09T12:19:09.870Z,788
2022-10-09T12:20:12.706Z,748
2022-10-09T12:21:11.420Z,772
2022-10-09T12:22:12.318Z,840
2022-10-09T12:23:38.058Z,908
2022-10-09T12:24:13.971Z,924
2022-10-09T12:25:13.865Z,948
2022-10-09T12:26:14.075Z,948
2022-10-09T12:27:14.240Z,912
2022-10-09T12:28:15.916Z,864
2022-10-09T12:29:15.397Z,848
2022-10-09T12:30:16.329Z,880
2022-10-09T12:31:17.692Z,944
2022-10-09T12:32:17.725Z,988
2022-10-09T12:33:18.221Z,1000
2022-10-09T12:34:18.565Z,1032
2022-10-09T12:35:18.613Z,1056
2022-10-09T12:36:19.998Z,1076
2022-10-09T12:37:20.718Z,1080
2022-10-09T12:38:21.365Z,1072
2022-10-09T12:39:22.270Z,1088
2022-10-09T12:40:22.169Z,1112
2022-10-09T12:41:26.331Z,1100
2022-10-09T12:42:23.426Z,1092
2022-10-09T12:43:23.106Z,1096
2022-10-09T12:44:24.322Z,1116
2022-10-09T12:45:24.563Z,1128
2022-10-09T12:46:25.330Z,1116
2022-10-09T12:47:25.718Z,1108
2022-10-09T12:48:26.654Z,1100
2022-10-09T12:49:27.269Z,1092
2022-10-09T12:50:28.768Z,1076
2022-10-09T12:51:28.408Z,1076
2022-10-09T12:52:29.330Z,1080
2022-10-09T12:53:30.526Z,1068
2022-10-09T12:54:31.039Z,1044
2022-10-09T12:55:30.941Z,1020
2022-10-09T12:56:32.132Z,1004
2022-10-09T12:57:36.456Z,984
2022-10-09T12:58:32.647Z,960
2022-10-09T12:59:33.345Z,928
2022-10-09T13:00:33.263Z,904
2022-10-09T13:01:35.269Z,880
2022-10-09T13:02:35.985Z,852
2022-10-09T13:03:36.215Z,828
2022-10-09T13:04:36.129Z,792
2022-10-09T13:05:36.876Z,736
2022-10-09T13:06:37.519Z,672
2022-10-09T13:07:38.315Z,612
2022-10-09T13:08:38.511Z,556
2022-10-09T13:09:39.420Z,508
2022-10-09T13:10:40.337Z,472
2022-10-09T13:11:40.247Z,436
2022-10-09T13:12:40.865Z,404
2022-10-09T13:13:41.248Z,380
2022-10-09T13:14:42.190Z,368
2022-10-09T13:15:42.397Z,360
2022-10-09T13:16:42.276Z,348
2022-10-09T13:17:42.915Z,348
2022-10-09T13:18:43.795Z,380
2022-10-09T13:19:44.291Z,416
2022-10-09T13:20:44.783Z,424
2022-10-09T13:21:46.349Z,416
2022-10-09T13:22:47.462Z,428
2022-10-09T13:23:46.114Z,452
2022-10-09T13:24:46.319Z,468
2022-10-09T13:25:46.213Z,444
2022-10-09T13:26:47.410Z,404
2022-10-09T13:27:47.581Z,376
2022-10-09T13:28:49.083Z,368
2022-10-09T13:29:48.727Z,388
2022-10-09T13:30:49.804Z,432
2022-10-09T13:31:50.512Z,464
2022-10-09T13:32:52.139Z,480
2022-10-09T13:33:52.357Z,480
2022-10-09T13:34:52.852Z,468
2022-10-09T13:35:53.046Z,476
2022-10-09T13:36:53.989Z,516
2022-10-09T13:37:55.660Z,560
2022-10-09T13:38:55.300Z,556
2022-10-09T13:39:56.226Z,516
2022-10-09T13:40:56.266Z,476
2022-10-09T13:41:57.747Z,460
2022-10-09T13:42:57.654Z,444
2022-10-09T13:43:58.843Z,428
2022-10-09T13:44:59.483Z,412
2022-10-09T13:46:00.999Z,396
2022-10-09T13:47:01.028Z,388
2022-10-09T13:48:02.158Z,388
2022-10-09T13:49:03.077Z,388
2022-10-09T13:50:03.018Z,376
2022-10-09T13:51:02.932Z,368
2022-10-09T13:52:03.880Z,368
2022-10-09T13:53:03.525Z,376
2022-10-09T13:54:04.736Z,384
2022-10-09T13:55:04.949Z,404
2022-10-09T13:56:12.018Z,408
2022-10-09T13:57:06.622Z,408
2022-10-09T13:58:07.737Z,404
2022-10-09T13:59:07.649Z,404
2022-10-09T14:00:08.597Z,376
2022-10-09T14:01:08.717Z,356
2022-10-09T14:02:08.744Z,360
2022-10-09T14:03:10.360Z,384
2022-10-09T14:04:10.088Z,400
2022-10-09T14:05:10.724Z,400
2022-10-09T14:06:12.011Z,392
2022-10-09T14:07:11.969Z,384
2022-10-09T14:08:12.787Z,376
2022-10-09T14:09:13.753Z,368
2022-10-09T14:10:13.661Z,352
2022-10-09T14:11:14.395Z,328
2022-10-09T14:12:14.736Z,312
2022-10-09T14:13:15.658Z,300
2022-10-09T14:14:15.283Z,292
2022-10-09T14:15:16.497Z,292
2022-10-09T14:16:16.725Z,292
2022-10-09T14:17:17.375Z,296
2022-10-09T14:18:18.709Z,300